Time,TemperatureF,DewpointF,PressureIn,WindDirection,WindDirectionDegrees,WindSpeedMPH,WindSpeedGustMPH,Humidity,HourlyPrecipIn,Conditions,Clouds,dailyrainin,SoftwareType,DateUTC
2013-04-27 00:10:00,52.0,50.0,30.38,SW,226,0.0,0.0,93,0.09,,,0.00,weatherlink.com 1.10,2013-04-27 04:10:00,
2013-04-27 00:25:00,52.2,50.0,30.37,SW,226,0.0,0.0,93,0.06,,,0.01,weatherlink.com 1.10,2013-04-27 04:25:00,
2013-04-27 00:40:00,52.4,51.0,30.36,SW,225,0.0,0.0,93,0.05,,,0.02,weatherlink.com 1.10,2013-04-27 04:40:00,
2013-04-27 00:56:00,52.4,51.0,30.38,North,350,0.0,0.0,94,0.04,,,0.03,weatherlink.com 1.10,2013-04-27 04:56:00,
2013-04-27 01:11:00,52.3,51.0,30.39,NNW,348,0.0,0.0,94,0.04,,,0.04,weatherlink.com 1.10,2013-04-27 05:11:00,
2013-04-27 01:26:00,52.2,51.0,30.39,NE,44,0.0,0.0,94,0.04,,,0.05,weatherlink.com 1.10,2013-04-27 05:26:00,
2013-04-27 01:41:00,52.3,51.0,30.40,NE,44,0.0,0.0,94,0.03,,,0.06,weatherlink.com 1.10,2013-04-27 05:41:00,
2013-04-27 01:56:00,52.3,51.0,30.40,NE,46,0.0,0.0,94,0.07,,,0.10,weatherlink.com 1.10,2013-04-27 05:56:00,
2013-04-27 02:11:00,52.2,51.0,30.38,NE,44,0.0,0.0,94,0.11,,,0.15,weatherlink.com 1.10,2013-04-27 06:11:00,
2013-04-27 02:26:00,52.2,51.0,30.41,NE,44,0.0,0.0,94,0.16,,,0.21,weatherlink.com 1.10,2013-04-27 06:26:00,
2013-04-27 02:41:00,52.1,51.0,30.40,NE,44,0.0,0.0,94,0.21,,,0.28,weatherlink.com 1.10,2013-04-27 06:41:00,
2013-04-27 02:56:00,52.2,51.0,30.38,NE,49,0.0,0.0,94,0.22,,,0.32,weatherlink.com 1.10,2013-04-27 06:56:00,
2013-04-27 03:11:00,52.1,51.0,30.37,SW,225,0.0,2.0,94,0.24,,,0.40,weatherlink.com 1.10,2013-04-27 07:11:00,
2013-04-27 03:26:00,51.8,50.0,30.37,SSE,160,0.0,1.0,94,0.24,,,0.46,weatherlink.com 1.10,2013-04-27 07:26:00,
2013-04-27 03:41:00,51.7,50.0,30.34,SSE,147,0.0,0.0,94,0.19,,,0.47,weatherlink.com 1.10,2013-04-27 07:41:00,
2013-04-27 03:56:00,51.3,50.0,30.33,SE,134,0.0,0.0,94,0.15,,,0.47,weatherlink.com 1.10,2013-04-27 07:56:00,
2013-04-27 04:11:00,51.4,50.0,30.32,SE,134,0.0,0.0,95,0.07,,,0.47,weatherlink.com 1.10,2013-04-27 08:11:00,
2013-04-27 04:26:00,51.3,50.0,30.33,SE,134,0.0,0.0,95,0.02,,,0.48,weatherlink.com 1.10,2013-04-27 08:26:00,
2013-04-27 04:41:00,51.5,50.0,30.34,SE,135,0.0,0.0,95,0.04,,,0.51,weatherlink.com 1.10,2013-04-27 08:41:00,
2013-04-27 04:56:00,51.6,50.0,30.35,SE,134,0.0,0.0,95,0.10,,,0.57,weatherlink.com 1.10,2013-04-27 08:56:00,
2013-04-27 05:11:00,51.5,50.0,30.36,SE,134,0.0,0.0,95,0.16,,,0.63,weatherlink.com 1.10,2013-04-27 09:11:00,
2013-04-27 05:26:00,51.6,50.0,30.35,WNW,301,0.0,0.0,95,0.22,,,0.70,weatherlink.com 1.10,2013-04-27 09:26:00,
2013-04-27 05:41:00,51.5,50.0,30.35,WNW,301,0.0,0.0,95,0.21,,,0.72,weatherlink.com 1.10,2013-04-27 09:41:00,
2013-04-27 05:56:00,51.6,50.0,30.34,WNW,300,0.0,0.0,95,0.16,,,0.74,weatherlink.com 1.10,2013-04-27 09:56:00,
2013-04-27 06:11:00,51.6,50.0,30.33,WNW,301,0.0,0.0,95,0.11,,,0.74,weatherlink.com 1.10,2013-04-27 10:11:00,
2013-04-27 06:26:00,51.7,50.0,30.32,WNW,301,0.0,0.0,95,0.04,,,0.74,weatherlink.com 1.10,2013-04-27 10:26:00,
2013-04-27 06:41:00,51.6,50.0,30.33,WSW,246,0.0,0.0,95,0.03,,,0.75,weatherlink.com 1.10,2013-04-27 10:41:00,
2013-04-27 06:56:00,51.6,50.0,30.32,WSW,246,0.0,0.0,95,0.01,,,0.75,weatherlink.com 1.10,2013-04-27 10:56:00,
2013-04-27 07:11:00,51.6,50.0,30.32,WSW,246,0.0,0.0,95,0.01,,,0.75,weatherlink.com 1.10,2013-04-27 11:11:00,
2013-04-27 07:26:00,51.6,50.0,30.32,NNW,338,0.0,0.0,95,0.02,,,0.76,weatherlink.com 1.10,2013-04-27 11:26:00,
2013-04-27 07:41:00,51.4,50.0,30.31,NE,51,0.0,0.0,95,0.01,,,0.76,weatherlink.com 1.10,2013-04-27 11:41:00,
2013-04-27 07:56:00,51.5,50.0,30.33,NNW,342,0.0,0.0,95,0.02,,,0.77,weatherlink.com 1.10,2013-04-27 11:56:00,
2013-04-27 08:11:00,51.6,50.0,30.32,NE,44,0.0,0.0,95,0.04,,,0.79,weatherlink.com 1.10,2013-04-27 12:11:00,
2013-04-27 08:26:00,51.7,50.0,30.32,NE,44,0.0,0.0,95,0.04,,,0.80,weatherlink.com 1.10,2013-04-27 12:26:00,
2013-04-27 08:41:00,52.0,51.0,30.31,North,8,0.0,0.0,95,0.04,,,0.80,weatherlink.com 1.10,2013-04-27 12:41:00,
2013-04-27 08:56:00,52.2,51.0,30.30,WSW,257,0.0,0.0,95,0.03,,,0.80,weatherlink.com 1.10,2013-04-27 12:56:00,
2013-04-27 09:11:00,51.6,50.0,30.30,ESE,109,0.0,0.0,95,0.01,,,0.80,weatherlink.com 1.10,2013-04-27 13:11:00,
2013-04-27 09:26:00,51.1,49.0,30.30,SE,131,1.0,4.0,93,0.00,,,0.80,weatherlink.com 1.10,2013-04-27 13:26:00,
2013-04-27 09:41:00,51.1,49.0,30.30,SSE,150,1.0,6.0,92,0.01,,,0.81,weatherlink.com 1.10,2013-04-27 13:41:00,
2013-04-27 09:56:00,51.0,49.0,30.30,West,264,2.0,4.0,91,0.01,,,0.81,weatherlink.com 1.10,2013-04-27 13:56:00,
2013-04-27 10:11:00,50.8,48.0,30.30,SSE,152,0.0,3.0,89,0.01,,,0.81,weatherlink.com 1.10,2013-04-27 14:11:00,
2013-04-27 10:26:00,51.0,49.0,30.31,SSE,152,1.0,1.0,93,0.01,,,0.81,weatherlink.com 1.10,2013-04-27 14:26:00,
2013-04-27 10:41:00,51.4,50.0,30.31,SSE,153,0.0,1.0,94,0.00,,,0.81,weatherlink.com 1.10,2013-04-27 14:41:00,
2013-04-27 10:56:00,51.2,49.0,30.31,West,260,0.0,1.0,93,0.01,,,0.82,weatherlink.com 1.10,2013-04-27 14:56:00,
2013-04-27 11:11:00,51.3,49.0,30.32,SSE,164,0.0,1.0,93,0.01,,,0.82,weatherlink.com 1.10,2013-04-27 15:11:00,
2013-04-27 11:26:00,51.8,50.0,30.33,SSE,167,0.0,1.0,94,0.01,,,0.82,weatherlink.com 1.10,2013-04-27 15:26:00,
2013-04-27 11:41:00,52.1,51.0,30.32,SSE,166,0.0,1.0,94,0.01,,,0.82,weatherlink.com 1.10,2013-04-27 15:41:00,
2013-04-27 11:56:00,51.8,50.0,30.33,SSE,168,0.0,1.0,94,0.01,,,0.83,weatherlink.com 1.10,2013-04-27 15:56:00,
2013-04-27 12:11:00,51.6,50.0,30.34,NNW,335,2.0,2.0,94,0.03,,,0.85,weatherlink.com 1.10,2013-04-27 16:11:00,
2013-04-27 12:26:00,51.5,50.0,30.34,North,357,0.0,1.0,94,0.05,,,0.87,weatherlink.com 1.10,2013-04-27 16:26:00,
2013-04-27 12:41:00,51.8,50.0,30.33,North,356,0.0,1.0,94,0.05,,,0.87,weatherlink.com 1.10,2013-04-27 16:41:00,
2013-04-27 12:56:00,51.9,50.0,30.33,NE,46,0.0,1.0,94,0.04,,,0.87,weatherlink.com 1.10,2013-04-27 16:56:00,
2013-04-27 13:11:00,51.8,50.0,30.32,NE,46,0.0,1.0,94,0.02,,,0.87,weatherlink.com 1.10,2013-04-27 17:11:00,
2013-04-27 13:26:00,51.8,50.0,30.30,ENE,74,0.0,1.0,93,0.00,,,0.87,weatherlink.com 1.10,2013-04-27 17:26:00,
2013-04-27 13:41:00,52.2,50.0,30.30,ESE,115,0.0,1.0,93,0.00,,,0.87,weatherlink.com 1.10,2013-04-27 17:41:00,
2013-04-27 13:56:00,52.2,50.0,30.30,SE,133,0.0,1.0,91,0.00,,,0.87,weatherlink.com 1.10,2013-04-27 17:56:00,
2013-04-27 14:11:00,52.8,50.0,30.28,SE,129,1.0,1.0,90,0.00,,,0.87,weatherlink.com 1.10,2013-04-27 18:11:00,
2013-04-27 14:26:00,54.0,51.0,30.29,East,86,1.0,2.0,89,0.00,,,0.87,weatherlink.com 1.10,2013-04-27 18:26:00,
2013-04-27 14:41:00,54.0,51.0,30.30,NW,320,0.0,1.0,89,0.00,,,0.87,weatherlink.com 1.10,2013-04-27 18:41:00,
2013-04-27 14:57:00,53.9,51.0,30.28,NNW,343,0.0,1.0,89,0.00,,,0.87,weatherlink.com 1.10,2013-04-27 18:57:00,
2013-04-27 15:12:00,54.6,51.0,30.28,NNE,27,0.0,2.0,87,0.00,,,0.87,weatherlink.com 1.10,2013-04-27 19:12:00,
2013-04-27 15:27:00,55.5,51.0,30.28,NNE,27,1.0,1.0,86,0.00,,,0.87,weatherlink.com 1.10,2013-04-27 19:27:00,
2013-04-27 15:42:00,55.6,51.0,30.28,NNE,24,0.0,1.0,85,0.00,,,0.87,weatherlink.com 1.10,2013-04-27 19:42:00,
2013-04-27 15:57:00,56.0,52.0,30.26,NNE,27,0.0,1.0,85,0.00,,,0.87,weatherlink.com 1.10,2013-04-27 19:57:00,
2013-04-27 16:12:00,57.8,53.0,30.26,NNE,27,0.0,1.0,84,0.00,,,0.87,weatherlink.com 1.10,2013-04-27 20:12:00,
2013-04-27 16:27:00,58.2,53.0,30.25,NNE,27,0.0,1.0,82,0.00,,,0.87,weatherlink.com 1.10,2013-04-27 20:27:00,
2013-04-27 16:42:00,58.0,53.0,30.24,NNE,27,0.0,0.0,84,0.00,,,0.87,weatherlink.com 1.10,2013-04-27 20:42:00,
2013-04-27 16:57:00,57.8,52.0,30.23,East,100,1.0,2.0,82,0.00,,,0.87,weatherlink.com 1.10,2013-04-27 20:57:00,
2013-04-27 17:12:00,57.6,50.0,30.23,ESE,123,1.0,2.0,77,0.00,,,0.87,weatherlink.com 1.10,2013-04-27 21:12:00,
2013-04-27 17:27:00,57.5,51.0,30.23,SE,146,1.0,2.0,79,0.00,,,0.87,weatherlink.com 1.10,2013-04-27 21:27:00,
2013-04-27 17:42:00,57.4,51.0,30.23,SE,128,1.0,2.0,78,0.00,,,0.87,weatherlink.com 1.10,2013-04-27 21:42:00,
2013-04-27 17:57:00,57.3,51.0,30.23,SSE,157,1.0,2.0,79,0.00,,,0.87,weatherlink.com 1.10,2013-04-27 21:57:00,
2013-04-27 18:12:00,57.4,51.0,30.24,SE,133,0.0,3.0,78,0.00,,,0.87,weatherlink.com 1.10,2013-04-27 22:12:00,
2013-04-27 18:27:00,57.4,51.0,30.23,SSE,150,0.0,2.0,80,0.00,,,0.87,weatherlink.com 1.10,2013-04-27 22:27:00,
2013-04-27 18:42:00,57.5,52.0,30.22,SE,136,1.0,3.0,81,0.00,,,0.87,weatherlink.com 1.10,2013-04-27 22:42:00,
2013-04-27 18:57:00,57.6,51.0,30.21,SSE,151,2.0,4.0,79,0.00,,,0.87,weatherlink.com 1.10,2013-04-27 22:57:00,
2013-04-27 19:12:00,57.5,51.0,30.21,SSW,212,4.0,4.0,78,0.00,,,0.87,weatherlink.com 1.10,2013-04-27 23:12:00,
2013-04-27 19:27:00,57.2,50.0,30.20,SE,129,2.0,5.0,78,0.00,,,0.87,weatherlink.com 1.10,2013-04-27 23:27:00,
2013-04-27 19:42:00,57.1,51.0,30.20,SE,145,1.0,2.0,79,0.00,,,0.87,weatherlink.com 1.10,2013-04-27 23:42:00,
2013-04-27 19:57:00,56.5,51.0,30.20,SE,139,1.0,2.0,81,0.00,,,0.87,weatherlink.com 1.10,2013-04-27 23:57:00,
2013-04-27 20:12:00,56.0,51.0,30.20,SE,129,0.0,2.0,82,0.00,,,0.87,weatherlink.com 1.10,2013-04-28 00:12:00,
2013-04-27 20:27:00,55.7,50.0,30.20,SE,131,0.0,1.0,82,0.00,,,0.87,weatherlink.com 1.10,2013-04-28 00:27:00,
2013-04-27 20:42:00,55.3,51.0,30.20,SE,131,1.0,1.0,84,0.00,,,0.87,weatherlink.com 1.10,2013-04-28 00:42:00,
2013-04-27 20:57:00,55.5,50.0,30.19,SE,139,0.0,2.0,83,0.00,,,0.87,weatherlink.com 1.10,2013-04-28 00:57:00,
2013-04-27 21:12:00,55.4,50.0,30.20,SSE,155,0.0,2.0,83,0.00,,,0.87,weatherlink.com 1.10,2013-04-28 01:12:00,
2013-04-27 21:27:00,55.3,51.0,30.18,SE,140,0.0,3.0,84,0.00,,,0.87,weatherlink.com 1.10,2013-04-28 01:27:00,
2013-04-27 21:42:00,55.3,51.0,30.18,SE,129,3.0,3.0,84,0.00,,,0.87,weatherlink.com 1.10,2013-04-28 01:42:00,
2013-04-27 21:57:00,55.6,51.0,30.19,ESE,120,4.0,5.0,84,0.00,,,0.87,weatherlink.com 1.10,2013-04-28 01:57:00,
2013-04-27 22:12:00,55.8,51.0,30.18,SSE,147,2.0,4.0,84,0.00,,,0.87,weatherlink.com 1.10,2013-04-28 02:12:00,
2013-04-27 22:27:00,55.8,51.0,30.18,SSE,162,2.0,6.0,84,0.00,,,0.87,weatherlink.com 1.10,2013-04-28 02:27:00,
2013-04-27 22:42:00,55.8,51.0,30.19,SSE,150,1.0,4.0,84,0.00,,,0.87,weatherlink.com 1.10,2013-04-28 02:42:00,
2013-04-27 22:57:00,55.6,51.0,30.19,SE,136,1.0,3.0,85,0.00,,,0.87,weatherlink.com 1.10,2013-04-28 02:57:00,
2013-04-27 23:12:00,55.7,52.0,30.19,SE,129,2.0,3.0,86,0.00,,,0.87,weatherlink.com 1.10,2013-04-28 03:12:00,
2013-04-27 23:27:00,55.8,51.0,30.19,SW,221,5.0,6.0,85,0.00,,,0.87,weatherlink.com 1.10,2013-04-28 03:27:00,
2013-04-27 23:42:00,55.8,51.0,30.19,SE,146,5.0,5.0,85,0.00,,,0.87,weatherlink.com 1.10,2013-04-28 03:42:00,
2013-04-27 23:57:00,55.7,52.0,30.18,SSE,147,2.0,6.0,86,0.00,,,0.87,weatherlink.com 1.10,2013-04-28 03:57:00,